Time;durP1;ratioP1;P1;durP2;ratioP2;P2;SDS_P1;SDS_P2;PMS_P1;PMS_P2;Temp;Humidity;BMP_temperature;BMP_pressure;BME280_temperature;BME280_humidity;BME280_pressure;Samples;Min_cycle;Max_cycle;Signal;HPM_P1;HPM_P2
2023/02/25 00:02:09;;;;;;;0.93;0.90;;;4.60;99.90;;;;;;6216382;23;20008;-81
2023/02/25 00:04:35;;;;;;;1.10;1.00;;;4.70;99.90;;;;;;6214884;23;20046;-81
2023/02/25 00:07:01;;;;;;;1.00;0.90;;;4.60;99.90;;;;;;6216343;23;20012;-81
2023/02/25 00:09:28;;;;;;;1.05;1.05;;;4.70;99.90;;;;;;6216305;23;20012;-81
2023/02/25 00:11:53;;;;;;;0.70;0.70;;;4.50;99.90;;;;;;6214433;23;20024;-81
2023/02/25 00:14:19;;;;;;;1.20;1.10;;;4.60;99.90;;;;;;6214727;23;20016;-81
2023/02/25 00:16:45;;;;;;;1.30;1.20;;;4.60;99.90;;;;;;6216440;23;20019;-80
2023/02/25 00:19:10;;;;;;;1.17;1.08;;;4.40;99.90;;;;;;6189255;23;20414;-81
2023/02/25 00:21:37;;;;;;;1.20;1.10;;;4.40;99.90;;;;;;6214337;23;20093;-81
2023/02/25 00:24:03;;;;;;;1.30;1.20;;;4.30;99.90;;;;;;6214267;23;20015;-81
2023/02/25 00:26:28;;;;;;;1.20;1.10;;;4.40;99.90;;;;;;6189145;23;20013;-81
2023/02/25 00:28:54;;;;;;;1.60;1.50;;;4.40;99.90;;;;;;6214283;23;20019;-81
2023/02/25 00:31:22;;;;;;;1.17;1.08;;;4.50;99.90;;;;;;6216246;23;20013;-81
2023/02/25 00:33:49;;;;;;;1.58;1.45;;;4.50;99.90;;;;;;6214220;23;20099;-81
2023/02/25 00:36:18;;;;;;;1.38;1.20;;;4.40;99.90;;;;;;6215705;23;20016;-81
2023/02/25 00:38:47;;;;;;;1.20;1.10;;;4.60;99.90;;;;;;6214506;23;20009;-81
2023/02/25 00:41:15;;;;;;;1.27;1.02;;;4.60;99.90;;;;;;6190897;23;20012;-80
2023/02/25 00:43:43;;;;;;;1.40;1.30;;;4.60;99.90;;;;;;6220232;23;20441;-81
2023/02/25 00:46:11;;;;;;;1.43;1.20;;;4.50;99.90;;;;;;6196607;23;20020;-81
2023/02/25 00:48:37;;;;;;;1.70;1.30;;;4.70;99.90;;;;;;6221172;23;20016;-81
2023/02/25 00:51:08;;;;;;;1.13;1.02;;;4.70;99.90;;;;;;6196258;23;20051;-81
2023/02/25 00:53:34;;;;;;;1.58;1.17;;;4.60;99.90;;;;;;6221780;23;20367;-81
2023/02/25 00:56:01;;;;;;;1.10;1.00;;;4.60;99.90;;;;;;6196219;23;20008;-81
2023/02/25 00:58:27;;;;;;;1.20;1.10;;;4.60;99.90;;;;;;6248259;23;20044;-81
2023/02/25 01:00:52;;;;;;;0.90;0.90;;;4.80;99.90;;;;;;6221098;23;20074;-81
2023/02/25 01:03:18;;;;;;;1.63;1.20;;;4.90;99.90;;;;;;6197025;23;20008;-80
2023/02/25 01:05:48;;;;;;;1.13;0.90;;;4.70;99.90;;;;;;6221087;23;20019;-81
2023/02/25 01:08:17;;;;;;;0.73;0.73;;;4.80;99.90;;;;;;6248568;23;20103;-81
2023/02/25 01:10:44;;;;;;;1.17;1.08;;;4.70;99.90;;;;;;6248173;23;20016;-80
2023/02/25 01:13:10;;;;;;;0.75;0.75;;;4.90;99.90;;;;;;6221445;23;20008;-81
2023/02/25 01:15:36;;;;;;;0.98;0.98;;;4.70;99.90;;;;;;6247476;23;20459;-81
2023/02/25 01:18:02;;;;;;;1.05;0.98;;;4.80;99.90;;;;;;6221047;23;20016;-81
2023/02/25 01:20:28;;;;;;;0.98;0.90;;;4.80;99.90;;;;;;6220853;23;20016;-81
2023/02/25 01:22:55;;;;;;;0.80;0.80;;;4.80;99.90;;;;;;6248100;23;20062;-81
2023/02/25 01:25:21;;;;;;;1.00;0.90;;;4.90;99.90;;;;;;6247630;23;20066;-81
2023/02/25 01:27:46;;;;;;;1.10;1.00;;;4.60;99.90;;;;;;6195827;23;20083;-82
2023/02/25 01:30:12;;;;;;;0.82;0.80;;;4.80;99.90;;;;;;6195797;23;20012;-81
2023/02/25 01:32:38;;;;;;;0.88;0.88;;;4.70;99.90;;;;;;6195645;23;20349;-81
2023/02/25 01:35:04;;;;;;;0.85;0.85;;;4.60;99.90;;;;;;6195888;23;20339;-81
2023/02/25 01:37:30;;;;;;;1.17;1.02;;;4.60;99.90;;;;;;6248016;23;20008;-81
2023/02/25 01:39:56;;;;;;;0.95;0.90;;;4.60;99.90;;;;;;6247845;23;20091;-81
2023/02/25 01:42:22;;;;;;;0.70;0.70;;;4.70;99.90;;;;;;6247467;23;20020;-81
2023/02/25 01:45:23;;;;;;;1.05;0.95;;;4.50;99.90;;;;;;6195567;23;20313;-81
2023/02/25 01:48:29;;;;;;;0.82;0.80;;;4.50;99.90;;;;;;6221182;23;20062;-81
2023/02/25 01:51:01;;;;;;;0.80;0.80;;;4.20;99.90;;;;;;6096186;23;20506;-81
2023/02/25 01:53:33;;;;;;;0.80;0.80;;;4.20;99.90;;;;;;6048011;23;20015;-81
2023/02/25 01:56:00;;;;;;;1.20;0.90;;;4.20;99.90;;;;;;6071659;23;20205;-81
2023/02/25 01:58:26;;;;;;;0.75;0.75;;;4.30;99.90;;;;;;6095857;23;20014;-81
2023/02/25 02:00:54;;;;;;;1.20;1.10;;;4.20;99.90;;;;;;6072146;23;20093;-81
2023/02/25 02:03:23;;;;;;;0.82;0.80;;;4.00;99.90;;;;;;6071951;23;20042;-81
2023/02/25 02:06:10;;;;;;;1.17;1.00;;;4.40;99.90;;;;;;6071877;23;20433;-81
2023/02/25 02:08:37;;;;;;;1.00;0.90;;;4.30;99.90;;;;;;6048004;23;20014;-81
2023/02/25 02:11:03;;;;;;;0.80;0.80;;;4.00;99.90;;;;;;6095957;23;20018;-81
2023/02/25 02:13:32;;;;;;;1.10;1.00;;;4.10;99.90;;;;;;6072056;23;20050;-82
2023/02/25 02:16:19;;;;;;;0.88;0.88;;;4.10;99.90;;;;;;6048387;23;20014;-81
2023/02/25 02:18:52;;;;;;;1.25;1.15;;;3.90;99.90;;;;;;6047910;23;20054;-81
2023/02/25 02:21:47;;;;;;;1.27;1.10;;;4.10;99.90;;;;;;6102484;23;20048;-81
2023/02/25 02:24:34;;;;;;;1.23;1.13;;;3.90;99.90;;;;;;6195522;23;20012;-81
2023/02/25 02:27:09;;;;;;;1.10;1.00;;;4.00;99.90;;;;;;6220947;23;20008;-82
2023/02/25 02:30:16;;;;;;;1.00;0.90;;;4.20;99.90;;;;;;6220474;23;20016;-81
2023/02/25 02:33:00;;;;;;;1.75;1.48;;;4.20;99.90;;;;;;6194655;23;20016;-81
2023/02/25 02:35:26;;;;;;;1.33;1.05;;;4.20;99.90;;;;;;6220190;23;20058;-81
2023/02/25 02:38:33;;;;;;;1.52;1.10;;;4.30;99.90;;;;;;6195083;23;20024;-82
2023/02/25 02:41:06;;;;;;;1.33;1.08;;;4.30;99.90;;;;;;6226986;23;20027;-82
2023/02/25 02:43:45;;;;;;;1.10;1.00;;;4.40;99.90;;;;;;6220096;23;20024;-81
2023/02/25 02:46:19;;;;;;;1.35;1.20;;;4.30;99.90;;;;;;6247559;23;20023;-82
2023/02/25 02:48:50;;;;;;;0.98;0.93;;;4.30;99.90;;;;;;6247231;23;20012;-82
2023/02/25 02:51:25;;;;;;;1.83;1.25;;;4.40;99.90;;;;;;6221118;23;20009;-81
2023/02/25 02:54:00;;;;;;;0.93;0.90;;;4.30;99.90;;;;;;6194990;23;20087;-82
2023/02/25 02:56:28;;;;;;;1.30;1.20;;;4.40;99.90;;;;;;6247173;23;20004;-81
2023/02/25 02:59:04;;;;;;;1.52;1.23;;;4.40;99.90;;;;;;6219955;23;20004;-82
2023/02/25 03:01:37;;;;;;;0.98;0.90;;;4.30;99.90;;;;;;6247140;23;20015;-82
2023/02/25 03:04:07;;;;;;;1.10;1.00;;;4.30;99.90;;;;;;6220445;23;20019;-81
2023/02/25 03:06:37;;;;;;;1.33;1.10;;;4.30;99.90;;;;;;6219538;23;20015;-81
2023/02/25 03:09:16;;;;;;;1.10;1.00;;;4.40;99.90;;;;;;6219920;23;20018;-82
2023/02/25 03:11:42;;;;;;;1.80;1.20;;;4.30;99.90;;;;;;6194789;23;20094;-81
2023/02/25 03:14:09;;;;;;;1.50;1.10;;;4.30;99.90;;;;;;6246602;23;20012;-82
2023/02/25 03:16:43;;;;;;;1.15;1.02;;;4.30;99.90;;;;;;6247198;23;20016;-82
2023/02/25 03:19:19;;;;;;;1.10;1.00;;;4.50;99.90;;;;;;6220133;23;20074;-81
2023/02/25 03:21:53;;;;;;;1.10;1.00;;;4.40;99.90;;;;;;6220642;23;20024;-82
2023/02/25 03:24:25;;;;;;;0.70;0.70;;;4.50;99.90;;;;;;6194782;23;20317;-82
2023/02/25 03:26:51;;;;;;;1.20;0.90;;;4.60;99.90;;;;;;6246458;23;20130;-82
2023/02/25 03:29:22;;;;;;;0.95;0.85;;;4.40;99.90;;;;;;6219827;23;20016;-81
2023/02/25 03:32:05;;;;;;;1.30;1.02;;;4.60;99.90;;;;;;6220482;23;20016;-81
2023/02/25 03:34:36;;;;;;;0.93;0.82;;;4.60;99.90;;;;;;6246880;23;20008;-81
2023/02/25 03:37:17;;;;;;;1.10;1.00;;;4.60;99.90;;;;;;6219747;23;20012;-81
2023/02/25 03:39:48;;;;;;;1.40;1.08;;;4.40;99.90;;;;;;6246374;23;20015;-81
2023/02/25 03:42:19;;;;;;;0.60;0.60;;;4.60;99.90;;;;;;6246435;23;20069;-81
2023/02/25 03:44:49;;;;;;;0.75;0.75;;;4.60;99.90;;;;;;6246855;23;20023;-82
2023/02/25 03:47:16;;;;;;;0.70;0.70;;;4.50;99.90;;;;;;6247245;23;20023;-82
2023/02/25 03:50:06;;;;;;;0.70;0.70;;;4.50;99.90;;;;;;6220293;23;20049;-81
2023/02/25 03:52:32;;;;;;;1.00;0.90;;;4.60;99.90;;;;;;6246401;23;20016;-82
2023/02/25 03:54:58;;;;;;;0.73;0.73;;;4.50;99.90;;;;;;6219503;23;20098;-81
2023/02/25 03:57:32;;;;;;;0.80;0.80;;;4.30;99.90;;;;;;6219522;23;20341;-81
2023/02/25 03:59:58;;;;;;;0.80;0.80;;;4.30;99.90;;;;;;6219333;23;20087;-81
2023/02/25 04:02:31;;;;;;;0.80;0.80;;;4.40;99.90;;;;;;6219611;23;20046;-81
2023/02/25 04:04:57;;;;;;;0.70;0.70;;;4.40;99.90;;;;;;6219488;23;20012;-81
2023/02/25 04:07:23;;;;;;;0.88;0.80;;;4.40;99.90;;;;;;6219822;23;20019;-81
2023/02/25 04:09:48;;;;;;;0.88;0.80;;;4.40;99.90;;;;;;6246572;23;20013;-82
2023/02/25 04:12:14;;;;;;;0.70;0.70;;;4.20;99.90;;;;;;6219449;23;20130;-81
2023/02/25 04:14:40;;;;;;;0.70;0.70;;;4.40;99.90;;;;;;6219477;23;20095;-81
2023/02/25 04:17:06;;;;;;;0.70;0.70;;;4.30;99.90;;;;;;6194631;23;20051;-81
2023/02/25 04:19:31;;;;;;;0.80;0.80;;;4.40;99.90;;;;;;6195979;23;20098;-81
2023/02/25 04:21:59;;;;;;;1.42;0.85;;;4.30;99.90;;;;;;6247964;23;20012;-81
2023/02/25 04:24:25;;;;;;;0.70;0.70;;;4.40;99.90;;;;;;6221453;23;20039;-81
2023/02/25 04:26:57;;;;;;;0.68;0.68;;;4.30;99.90;;;;;;6196663;23;20012;-81
2023/02/25 04:29:24;;;;;;;0.70;0.70;;;4.30;99.90;;;;;;6221413;23;20015;-81
2023/02/25 04:31:50;;;;;;;0.60;0.60;;;4.40;99.90;;;;;;6221537;23;20023;-81
2023/02/25 04:34:16;;;;;;;0.68;0.68;;;4.60;99.90;;;;;;6248536;23;20016;-82
2023/02/25 04:36:43;;;;;;;0.70;0.70;;;4.70;99.90;;;;;;6196128;23;20016;-82
2023/02/25 04:39:10;;;;;;;0.60;0.60;;;4.80;99.90;;;;;;6221591;23;20012;-82
2023/02/25 04:41:36;;;;;;;0.60;0.60;;;4.80;99.90;;;;;;6196013;23;20016;-81
2023/02/25 04:44:04;;;;;;;0.50;0.50;;;4.60;99.90;;;;;;6248604;23;20020;-81
2023/02/25 04:46:35;;;;;;;0.50;0.50;;;4.60;99.90;;;;;;6196247;23;20440;-81
2023/02/25 04:49:01;;;;;;;0.40;0.40;;;4.70;99.90;;;;;;6221664;23;20008;-81
2023/02/25 04:51:27;;;;;;;0.47;0.47;;;4.50;99.90;;;;;;6247870;23;20043;-81
2023/02/25 04:53:53;;;;;;;0.40;0.40;;;4.60;99.90;;;;;;6221170;23;20023;-81
2023/02/25 04:56:19;;;;;;;0.50;0.50;;;4.60;99.90;;;;;;6221541;23;20389;-82
2023/02/25 04:58:45;;;;;;;0.40;0.40;;;4.50;99.90;;;;;;6248274;23;20333;-81
2023/02/25 05:01:11;;;;;;;0.40;0.40;;;4.40;99.90;;;;;;6221251;23;20019;-81
2023/02/25 05:03:38;;;;;;;0.40;0.40;;;4.50;99.90;;;;;;6221570;23;20344;-81
2023/02/25 05:06:04;;;;;;;0.40;0.40;;;4.40;99.90;;;;;;6220988;23;20437;-81
2023/02/25 05:08:30;;;;;;;0.40;0.40;;;4.50;99.90;;;;;;6247761;23;20019;-81
2023/02/25 05:10:56;;;;;;;0.40;0.40;;;4.30;99.90;;;;;;6220963;23;20460;-81
2023/02/25 05:13:22;;;;;;;0.47;0.47;;;4.40;99.90;;;;;;6220944;23;20016;-81
2023/02/25 05:15:47;;;;;;;0.40;0.40;;;4.30;99.90;;;;;;6221001;23;20440;-81
2023/02/25 05:18:13;;;;;;;0.30;0.30;;;4.40;99.90;;;;;;6248016;23;20012;-82
2023/02/25 05:20:45;;;;;;;0.40;0.40;;;4.40;99.90;;;;;;6247671;23;20043;-81
2023/02/25 05:23:11;;;;;;;0.40;0.40;;;4.50;99.90;;;;;;6220965;23;20005;-81
2023/02/25 05:25:41;;;;;;;0.50;0.50;;;4.30;99.90;;;;;;6221156;23;20012;-81
2023/02/25 05:28:08;;;;;;;0.60;0.60;;;4.30;99.90;;;;;;6220923;23;20088;-81
2023/02/25 05:30:34;;;;;;;0.50;0.50;;;4.30;99.90;;;;;;6220572;23;20043;-82
2023/02/25 05:32:59;;;;;;;0.60;0.60;;;4.20;99.90;;;;;;6248084;23;20078;-82
2023/02/25 05:35:25;;;;;;;0.50;0.50;;;4.20;99.90;;;;;;6195729;23;20095;-81
2023/02/25 05:37:50;;;;;;;0.55;0.55;;;4.00;99.90;;;;;;6220753;23;20337;-82
2023/02/25 05:40:16;;;;;;;0.70;0.70;;;4.00;99.90;;;;;;6220688;23;20020;-81
2023/02/25 05:42:42;;;;;;;0.50;0.50;;;4.10;99.90;;;;;;6247402;23;20024;-81
2023/02/25 05:45:09;;;;;;;0.50;0.50;;;3.90;99.90;;;;;;6247875;23;20016;-81
2023/02/25 05:47:34;;;;;;;0.40;0.40;;;4.10;99.90;;;;;;6220758;23;20008;-81
2023/02/25 05:50:00;;;;;;;0.50;0.50;;;4.00;99.90;;;;;;6220698;23;20333;-81
2023/02/25 05:52:26;;;;;;;0.50;0.50;;;3.90;99.90;;;;;;6221076;23;20012;-81
2023/02/25 05:54:51;;;;;;;0.43;0.43;;;4.00;99.90;;;;;;6195569;23;20020;-82
2023/02/25 05:57:18;;;;;;;0.50;0.50;;;4.00;99.90;;;;;;6195634;23;20009;-82
2023/02/25 05:59:44;;;;;;;0.47;0.47;;;4.00;99.90;;;;;;6195745;23;20091;-81
2023/02/25 06:02:09;;;;;;;0.50;0.50;;;4.00;99.90;;;;;;6220755;23;20035;-82
2023/02/25 06:04:35;;;;;;;0.50;0.50;;;3.90;99.90;;;;;;6195706;23;20012;-81
2023/02/25 06:07:02;;;;;;;0.50;0.50;;;3.90;99.90;;;;;;6247429;23;20333;-82
2023/02/25 06:09:28;;;;;;;0.82;0.70;;;4.00;99.90;;;;;;6220478;23;20015;-82
2023/02/25 06:11:53;;;;;;;0.43;0.43;;;4.10;99.90;;;;;;6220544;23;20012;-82
2023/02/25 06:14:19;;;;;;;0.63;0.50;;;4.30;99.90;;;;;;6247820;23;20012;-82
2023/02/25 06:16:45;;;;;;;0.68;0.68;;;4.30;99.90;;;;;;6220788;23;20012;-82
2023/02/25 06:19:11;;;;;;;0.70;0.70;;;4.30;99.90;;;;;;6220575;23;20035;-82
2023/02/25 06:21:36;;;;;;;0.45;0.45;;;4.40;99.90;;;;;;6220590;23;20048;-82
2023/02/25 06:24:03;;;;;;;0.47;0.47;;;4.40;99.90;;;;;;6195443;23;20047;-83
2023/02/25 06:26:28;;;;;;;0.88;0.65;;;4.50;99.90;;;;;;6220933;23;20079;-82
2023/02/25 06:28:55;;;;;;;0.50;0.50;;;4.50;99.90;;;;;;6247746;23;20051;-82
2023/02/25 06:31:22;;;;;;;0.65;0.65;;;4.50;99.90;;;;;;6220468;23;20091;-82
2023/02/25 06:33:49;;;;;;;0.60;0.60;;;4.60;99.90;;;;;;6194952;23;20023;-82
2023/02/25 06:36:16;;;;;;;0.50;0.50;;;4.60;99.90;;;;;;6220078;23;20131;-82
2023/02/25 06:38:44;;;;;;;0.43;0.43;;;4.50;99.90;;;;;;6247223;23;20012;-82
2023/02/25 06:41:14;;;;;;;0.40;0.40;;;4.60;99.90;;;;;;6219728;23;20012;-81
2023/02/25 06:43:40;;;;;;;0.60;0.60;;;4.50;99.90;;;;;;6220178;23;20074;-82
2023/02/25 06:46:08;;;;;;;0.50;0.50;;;4.50;99.90;;;;;;6220132;23;20004;-82
2023/02/25 06:48:34;;;;;;;0.45;0.45;;;4.40;99.90;;;;;;6194998;23;20008;-82
2023/02/25 06:51:00;;;;;;;0.60;0.60;;;4.20;99.90;;;;;;6220057;23;20083;-82
2023/02/25 06:53:26;;;;;;;0.60;0.60;;;4.20;99.90;;;;;;6246796;23;20008;-82
2023/02/25 06:55:52;;;;;;;0.60;0.60;;;4.10;99.90;;;;;;6247173;23;20047;-82
2023/02/25 06:58:17;;;;;;;0.50;0.50;;;4.20;99.90;;;;;;6220451;23;20086;-82
2023/02/25 07:00:43;;;;;;;0.60;0.60;;;4.00;99.90;;;;;;6247433;23;20012;-82
2023/02/25 07:03:14;;;;;;;0.47;0.47;;;4.20;99.90;;;;;;6220451;23;20047;-82
2023/02/25 07:05:39;;;;;;;0.50;0.50;;;4.20;99.90;;;;;;6247182;23;20004;-82
2023/02/25 07:08:05;;;;;;;0.30;0.30;;;4.10;99.90;;;;;;6246679;23;20408;-82
2023/02/25 07:10:31;;;;;;;0.50;0.50;;;4.00;99.90;;;;;;6219943;23;20062;-82
2023/02/25 07:12:57;;;;;;;0.45;0.45;;;4.10;99.90;;;;;;6220020;23;20012;-82
2023/02/25 07:15:22;;;;;;;0.50;0.50;;;4.10;99.90;;;;;;6246963;23;20009;-82
2023/02/25 07:17:48;;;;;;;0.50;0.50;;;4.00;99.90;;;;;;6220113;23;20012;-81
2023/02/25 07:20:14;;;;;;;0.52;0.52;;;4.00;99.90;;;;;;6219760;23;20341;-82
2023/02/25 07:22:40;;;;;;;0.30;0.30;;;4.20;99.90;;;;;;6246902;23;20019;-82
2023/02/25 07:25:08;;;;;;;0.50;0.50;;;4.00;99.90;;;;;;6219848;23;20436;-82
2023/02/25 07:27:33;;;;;;;0.50;0.50;;;4.00;99.90;;;;;;6219678;23;20392;-82
2023/02/25 07:30:00;;;;;;;0.50;0.50;;;4.10;99.90;;;;;;6246836;23;20046;-82
2023/02/25 07:32:26;;;;;;;0.40;0.40;;;4.10;99.90;;;;;;6219783;23;20016;-82
2023/02/25 07:34:51;;;;;;;0.43;0.43;;;4.10;99.90;;;;;;6219638;23;20020;-82
2023/02/25 07:37:17;;;;;;;0.50;0.50;;;4.00;99.90;;;;;;6219527;23;20016;-82
2023/02/25 07:39:43;;;;;;;0.50;0.50;;;4.20;99.90;;;;;;6219516;23;20012;-82
2023/02/25 07:42:08;;;;;;;0.50;0.50;;;4.20;99.90;;;;;;6246537;23;20012;-81
2023/02/25 07:44:34;;;;;;;0.40;0.40;;;4.40;99.90;;;;;;6194604;23;20012;-82
2023/02/25 07:47:00;;;;;;;0.55;0.55;;;4.30;99.90;;;;;;6246913;23;20047;-82
2023/02/25 07:49:26;;;;;;;0.32;0.32;;;4.30;99.90;;;;;;6219986;23;20016;-82
2023/02/25 07:51:52;;;;;;;0.55;0.55;;;4.40;99.90;;;;;;6219626;23;20020;-82
2023/02/25 07:54:20;;;;;;;0.50;0.50;;;4.50;99.90;;;;;;6194278;23;20008;-82
2023/02/25 07:56:46;;;;;;;0.50;0.50;;;4.50;99.90;;;;;;6246330;23;20443;-82
2023/02/25 07:59:12;;;;;;;0.60;0.60;;;4.60;99.90;;;;;;6219422;23;20031;-82
2023/02/25 08:01:38;;;;;;;0.57;0.55;;;4.60;99.90;;;;;;6219906;23;20004;-82
2023/02/25 08:04:05;;;;;;;0.68;0.68;;;4.60;99.90;;;;;;6246590;23;20020;-82
2023/02/25 08:06:35;;;;;;;0.50;0.50;;;4.70;99.90;;;;;;6219404;23;20012;-82
2023/02/25 08:09:01;;;;;;;0.52;0.52;;;4.60;99.90;;;;;;6194456;23;20074;-81
2023/02/25 08:11:26;;;;;;;0.55;0.55;;;4.70;99.90;;;;;;6219669;23;20456;-82
2023/02/25 08:13:53;;;;;;;0.50;0.50;;;4.60;99.90;;;;;;6219339;23;20016;-82
2023/02/25 08:16:20;;;;;;;0.50;0.50;;;4.70;99.90;;;;;;6219577;23;20016;-80
2023/02/25 08:18:46;;;;;;;0.50;0.50;;;4.70;99.90;;;;;;6194467;23;20012;-82
2023/02/25 08:21:14;;;;;;;0.55;0.55;;;4.80;99.90;;;;;;6246683;23;20088;-80
2023/02/25 08:23:40;;;;;;;0.55;0.55;;;4.80;99.90;;;;;;6219409;23;20079;-76
2023/02/25 08:26:08;;;;;;;0.60;0.60;;;4.80;99.90;;;;;;6219629;23;20019;-79
2023/02/25 08:28:34;;;;;;;0.50;0.50;;;5.00;99.90;;;;;;6246356;23;20043;-82
2023/02/25 08:31:00;;;;;;;0.60;0.60;;;5.00;99.90;;;;;;6246687;23;20016;-82
2023/02/25 08:33:27;;;;;;;0.50;0.50;;;5.10;99.90;;;;;;6246574;23;20069;-82
2023/02/25 08:35:53;;;;;;;0.50;0.50;;;5.10;99.90;;;;;;6219331;23;20008;-83
2023/02/25 08:38:19;;;;;;;0.50;0.50;;;5.20;99.90;;;;;;6246549;23;20385;-82
2023/02/25 08:40:45;;;;;;;0.50;0.50;;;5.30;99.90;;;;;;6246360;23;20012;-82
2023/02/25 08:43:12;;;;;;;0.43;0.43;;;5.40;99.90;;;;;;6245948;23;20399;-80
2023/02/25 08:45:40;;;;;;;0.50;0.50;;;5.40;99.90;;;;;;6246447;23;20058;-81
2023/02/25 08:48:05;;;;;;;0.60;0.60;;;5.60;99.90;;;;;;6246211;23;20012;-82
2023/02/25 08:50:31;;;;;;;0.40;0.40;;;5.60;99.90;;;;;;6194158;23;20105;-80
2023/02/25 08:52:57;;;;;;;0.45;0.45;;;5.80;99.90;;;;;;6219336;23;20013;-83
2023/02/25 08:55:23;;;;;;;0.50;0.50;;;5.90;99.90;;;;;;6219254;23;20020;-81
2023/02/25 08:57:52;;;;;;;0.60;0.60;;;6.00;99.90;;;;;;6246360;23;20044;-83
2023/02/25 09:00:20;;;;;;;0.70;0.70;;;6.10;99.90;;;;;;6219435;23;20087;-88
2023/02/25 09:02:46;;;;;;;0.50;0.50;;;6.20;99.90;;;;;;6219603;23;20042;-81
2023/02/25 09:05:11;;;;;;;0.40;0.40;;;6.20;99.90;;;;;;6220624;23;20012;-80
2023/02/25 09:07:37;;;;;;;0.60;0.60;;;6.20;99.90;;;;;;6221662;23;20106;-80
2023/02/25 09:10:08;;;;;;;0.60;0.60;;;6.30;99.90;;;;;;6247813;23;20535;-80
2023/02/25 09:12:37;;;;;;;0.40;0.40;;;6.20;99.90;;;;;;6248241;23;20026;-80
2023/02/25 09:15:06;;;;;;;0.60;0.60;;;6.30;99.90;;;;;;6248336;23;20076;-81
2023/02/25 09:17:32;;;;;;;0.50;0.50;;;6.30;99.90;;;;;;6221063;23;20016;-80
2023/02/25 09:20:00;;;;;;;0.50;0.50;;;6.20;99.90;;;;;;6248165;23;20058;-80
2023/02/25 09:22:26;;;;;;;0.43;0.43;;;6.10;99.90;;;;;;6248220;23;20011;-79
2023/02/25 09:24:52;;;;;;;0.40;0.40;;;6.10;99.90;;;;;;6221028;23;20333;-79
2023/02/25 09:27:18;;;;;;;0.60;0.60;;;6.10;99.90;;;;;;6220775;23;20008;-78
2023/02/25 09:29:43;;;;;;;0.60;0.60;;;6.10;99.90;;;;;;6247980;23;20062;-77
2023/02/25 09:32:17;;;;;;;0.55;0.55;;;6.00;99.90;;;;;;6248009;23;20016;-78
2023/02/25 09:34:42;;;;;;;0.52;0.52;;;5.90;99.90;;;;;;6247718;23;20341;-80
2023/02/25 09:37:10;;;;;;;0.57;0.57;;;5.90;99.90;;;;;;6247922;23;20015;-80
2023/02/25 09:39:36;;;;;;;0.68;0.68;;;5.90;99.90;;;;;;6220651;23;20016;-80
2023/02/25 09:42:20;;;;;;;0.52;0.52;;;6.10;99.90;;;;;;6220571;23;20024;-70
2023/02/25 09:44:49;;;;;;;0.40;0.40;;;6.30;99.90;;;;;;6248019;23;20012;-78
2023/02/25 09:47:51;;;;;;;0.60;0.60;;;6.50;99.90;;;;;;6220935;23;20008;-73
2023/02/25 09:50:34;;;;;;;0.50;0.50;;;6.70;99.90;;;;;;6096107;23;20019;-73
2023/02/25 09:53:16;;;;;;;0.50;0.50;;;6.80;99.90;;;;;;6071995;23;20450;-73
2023/02/25 09:55:46;;;;;;;0.47;0.47;;;6.90;98.60;;;;;;6096852;23;20018;-73
2023/02/25 09:58:12;;;;;;;0.50;0.50;;;6.90;98.20;;;;;;6096052;23;20018;-73
2023/02/25 10:01:00;;;;;;;0.50;0.50;;;7.10;97.90;;;;;;6072072;23;20022;-73
2023/02/25 10:03:40;;;;;;;0.50;0.50;;;7.20;97.20;;;;;;6072081;23;20014;-73
2023/02/25 10:06:29;;;;;;;0.50;0.50;;;7.30;96.60;;;;;;6096011;23;20021;-71
2023/02/25 10:09:31;;;;;;;0.28;0.28;;;7.40;96.60;;;;;;6095842;23;20119;-71
2023/02/25 10:12:13;;;;;;;0.50;0.50;;;7.60;96.70;;;;;;6072773;23;20018;-72
2023/02/25 10:14:47;;;;;;;0.40;0.40;;;7.70;96.40;;;;;;6096002;23;20014;-71
2023/02/25 10:17:22;;;;;;;0.40;0.40;;;7.80;93.70;;;;;;6071668;23;20018;-72
2023/02/25 10:19:59;;;;;;;0.43;0.43;;;7.90;92.70;;;;;;6095859;23;20022;-72
2023/02/25 10:22:42;;;;;;;0.30;0.30;;;8.00;92.30;;;;;;6095937;23;20339;-71
2023/02/25 10:25:26;;;;;;;0.35;0.35;;;8.00;92.30;;;;;;6130992;23;20019;-69
2023/02/25 10:28:06;;;;;;;0.32;0.32;;;7.90;93.40;;;;;;6221494;23;20027;-70
2023/02/25 10:30:37;;;;;;;0.52;0.52;;;7.80;92.40;;;;;;6247803;23;20103;-72
2023/02/25 10:33:12;;;;;;;0.40;0.40;;;7.70;92.20;;;;;;6220791;23;20020;-70
2023/02/25 10:35:39;;;;;;;0.43;0.43;;;7.70;92.90;;;;;;6220393;23;20016;-70
2023/02/25 10:38:05;;;;;;;0.50;0.50;;;7.70;94.20;;;;;;6220220;23;20062;-70
2023/02/25 10:40:31;;;;;;;0.40;0.40;;;7.60;95.40;;;;;;6247271;23;20012;-70
2023/02/25 10:43:08;;;;;;;0.47;0.47;;;7.70;96.40;;;;;;6220144;23;20107;-70
2023/02/25 10:45:35;;;;;;;0.50;0.50;;;8.00;93.60;;;;;;6220069;23;20042;-70
2023/02/25 10:48:21;;;;;;;0.40;0.40;;;8.10;93.00;;;;;;6220238;23;20042;-70
2023/02/25 10:51:05;;;;;;;0.40;0.40;;;8.20;93.30;;;;;;6220511;23;20345;-70
2023/02/25 10:53:32;;;;;;;0.50;0.50;;;8.40;92.10;;;;;;6221027;23;20047;-70
2023/02/25 10:55:59;;;;;;;0.50;0.50;;;8.40;92.00;;;;;;6220355;23;20023;-70
2023/02/25 10:58:24;;;;;;;0.43;0.43;;;8.50;93.20;;;;;;6247136;23;20016;-70
2023/02/25 11:01:06;;;;;;;0.38;0.38;;;8.50;92.60;;;;;;6219814;23;20016;-70
2023/02/25 11:03:57;;;;;;;0.30;0.30;;;8.40;93.00;;;;;;6220119;23;20016;-78
2023/02/25 11:06:34;;;;;;;0.30;0.30;;;8.40;91.80;;;;;;6247138;23;20070;-74
2023/02/25 11:09:02;;;;;;;0.40;0.40;;;8.50;88.70;;;;;;6220335;23;20008;-71
2023/02/25 11:11:36;;;;;;;0.30;0.30;;;8.60;87.30;;;;;;6247087;23;20012;-71
2023/02/25 11:14:14;;;;;;;0.40;0.40;;;8.70;89.40;;;;;;6247107;23;20010;-71
2023/02/25 11:16:43;;;;;;;0.40;0.40;;;8.70;86.40;;;;;;6247613;23;20012;-71
2023/02/25 11:19:25;;;;;;;0.47;0.47;;;8.80;85.90;;;;;;6219797;23;20023;-71
2023/02/25 11:21:52;;;;;;;0.40;0.40;;;8.80;84.10;;;;;;6194730;23;20431;-70
2023/02/25 11:24:30;;;;;;;0.32;0.32;;;8.80;87.20;;;;;;6246913;23;20079;-71
2023/02/25 11:26:56;;;;;;;0.40;0.40;;;8.90;87.20;;;;;;6219549;23;20017;-72
2023/02/25 11:29:42;;;;;;;0.30;0.30;;;8.90;85.70;;;;;;6246614;23;20047;-71
2023/02/25 11:32:16;;;;;;;0.30;0.30;;;9.00;87.60;;;;;;6246586;23;20453;-71
2023/02/25 11:34:55;;;;;;;0.50;0.50;;;9.00;88.20;;;;;;6219527;23;20016;-70
2023/02/25 11:37:35;;;;;;;0.30;0.30;;;9.10;88.10;;;;;;6246802;23;20376;-70
2023/02/25 11:40:01;;;;;;;0.38;0.38;;;9.20;90.80;;;;;;6219565;23;20087;-71
2023/02/25 11:42:29;;;;;;;0.32;0.30;;;9.30;90.60;;;;;;6246573;23;20286;-72
2023/02/25 11:45:03;;;;;;;0.47;0.47;;;9.40;85.60;;;;;;6219945;23;20012;-69
2023/02/25 11:47:32;;;;;;;0.47;0.47;;;9.20;88.90;;;;;;6219578;23;20019;-70
2023/02/25 11:50:12;;;;;;;0.40;0.40;;;9.10;87.90;;;;;;6219598;23;20345;-73
2023/02/25 11:53:13;;;;;;;0.40;0.40;;;9.00;89.80;;;;;;6247128;23;20019;-73
2023/02/25 11:56:01;;;;;;;0.47;0.47;;;9.20;88.00;;;;;;6246370;23;20063;-72
2023/02/25 11:58:50;;;;;;;0.40;0.40;;;9.30;83.70;;;;;;6219556;23;20016;-74
2023/02/25 12:01:46;;;;;;;0.30;0.30;;;9.30;83.30;;;;;;6246680;23;20332;-72
2023/02/25 12:04:14;;;;;;;0.50;0.50;;;9.40;81.70;;;;;;6246770;23;20073;-73
2023/02/25 12:07:06;;;;;;;0.30;0.30;;;9.60;82.10;;;;;;6246541;23;20013;-73
2023/02/25 12:10:22;;;;;;;0.40;0.40;;;9.90;78.20;;;;;;6219494;23;20016;-73
2023/02/25 12:13:22;;;;;;;0.40;0.40;;;10.00;79.50;;;;;;6095786;23;20018;-73
2023/02/25 12:16:18;;;;;;;0.30;0.30;;;10.20;79.40;;;;;;6095726;23;20014;-73
2023/02/25 12:19:08;;;;;;;0.30;0.30;;;10.40;76.50;;;;;;6095675;23;20021;-70
2023/02/25 12:22:04;;;;;;;0.30;0.30;;;10.60;76.30;;;;;;6094863;23;20026;-70
2023/02/25 12:24:57;;;;;;;0.30;0.30;;;10.80;77.00;;;;;;6094925;23;20072;-70
2023/02/25 12:28:00;;;;;;;0.30;0.30;;;11.00;72.80;;;;;;6081801;23;20023;-70
2023/02/25 12:30:44;;;;;;;0.40;0.40;;;11.00;73.90;;;;;;6094965;23;20018;-70
2023/02/25 12:34:01;;;;;;;0.30;0.30;;;11.30;72.10;;;;;;6094981;23;20019;-70
2023/02/25 12:36:45;;;;;;;0.40;0.40;;;11.50;72.80;;;;;;6066005;23;20023;-70
2023/02/25 12:39:54;;;;;;;0.40;0.40;;;11.80;73.50;;;;;;6042619;23;20019;-70
2023/02/25 12:42:31;;;;;;;0.20;0.20;;;11.80;73.00;;;;;;6010610;23;20365;-70
2023/02/25 12:45:31;;;;;;;0.32;0.32;;;11.70;71.00;;;;;;6011223;23;20330;-70
2023/02/25 12:47:59;;;;;;;0.40;0.40;;;11.70;70.20;;;;;;6024117;23;20020;-70
2023/02/25 12:50:49;;;;;;;0.30;0.30;;;11.70;70.90;;;;;;6096861;23;20018;-70
2023/02/25 12:53:36;;;;;;;0.30;0.30;;;11.90;70.80;;;;;;6097723;23;20023;-68
2023/02/25 12:56:31;;;;;;;0.20;0.20;;;12.50;67.40;;;;;;6096780;23;20014;-68
2023/02/25 12:59:09;;;;;;;0.30;0.30;;;13.30;65.80;;;;;;6096697;23;20085;-68
2023/02/25 13:01:55;;;;;;;0.20;0.20;;;13.90;68.60;;;;;;6096669;23;20082;-68
2023/02/25 13:04:27;;;;;;;0.30;0.30;;;14.90;62.60;;;;;;6097045;23;20030;-68
2023/02/25 13:07:16;;;;;;;0.30;0.30;;;15.70;59.70;;;;;;6123274;23;20029;-68
2023/02/25 13:10:03;;;;;;;0.28;0.28;;;16.40;57.40;;;;;;6155068;23;20171;-68
2023/02/25 13:12:49;;;;;;;0.30;0.30;;;17.10;55.20;;;;;;6130654;23;20028;-68
2023/02/25 13:15:19;;;;;;;0.40;0.40;;;17.50;52.90;;;;;;6140654;23;20060;-69
2023/02/25 13:17:59;;;;;;;0.32;0.32;;;17.80;51.20;;;;;;6248568;23;20008;-68
2023/02/25 13:20:28;;;;;;;0.30;0.30;;;18.10;49.60;;;;;;6248090;23;20012;-68